createdAt,value
2022-08-27T00:01:44.855Z,100.00
2022-08-27T00:04:11.408Z,100.00
2022-08-27T00:06:37.898Z,100.00
2022-08-27T00:09:04.939Z,100.00
2022-08-27T00:11:31.344Z,100.00
2022-08-27T00:13:57.721Z,100.00
2022-08-27T00:16:24.540Z,100.00
2022-08-27T00:18:50.950Z,100.00
2022-08-27T00:21:17.680Z,100.00
2022-08-27T00:23:44.174Z,100.00
2022-08-27T00:26:10.599Z,100.00
2022-08-27T00:28:36.964Z,100.00
2022-08-27T00:31:03.383Z,100.00
2022-08-27T00:33:30.613Z,100.00
2022-08-27T00:35:57.019Z,100.00
2022-08-27T00:38:23.412Z,100.00
2022-08-27T00:40:50.582Z,100.00
2022-08-27T00:43:23.803Z,100.00
2022-08-27T00:45:50.587Z,100.00
2022-08-27T00:48:20.338Z,100.00
2022-08-27T00:50:47.866Z,100.00
2022-08-27T00:53:15.192Z,100.00
2022-08-27T00:55:45.780Z,100.00
2022-08-27T00:58:17.080Z,100.00
2022-08-27T01:00:44.158Z,100.00
2022-08-27T01:03:10.556Z,100.00
2022-08-27T01:05:36.950Z,100.00
2022-08-27T01:08:04.360Z,100.00
2022-08-27T01:10:30.824Z,100.00
2022-08-27T01:12:57.218Z,100.00
2022-08-27T01:15:25.237Z,100.00
2022-08-27T01:17:51.615Z,100.00
2022-08-27T01:20:20.109Z,100.00
2022-08-27T01:23:07.075Z,100.00
2022-08-27T01:25:33.446Z,100.00
2022-08-27T01:28:00.625Z,100.00
2022-08-27T01:30:27.041Z,100.00
2022-08-27T01:32:53.417Z,100.00
2022-08-27T01:35:20.358Z,100.00
2022-08-27T01:37:47.634Z,100.00
2022-08-27T01:40:14.164Z,100.00
2022-08-27T01:42:44.267Z,100.00
2022-08-27T01:45:12.347Z,100.00
2022-08-27T01:47:38.718Z,100.00
2022-08-27T01:50:08.729Z,100.00
2022-08-27T01:52:35.085Z,100.00
2022-08-27T01:55:01.458Z,100.00
2022-08-27T01:57:27.862Z,100.00
2022-08-27T01:59:56.872Z,100.00
2022-08-27T02:02:23.322Z,100.00
2022-08-27T02:04:50.951Z,100.00
2022-08-27T02:07:17.315Z,100.00
2022-08-27T02:09:43.669Z,100.00
2022-08-27T02:12:10.193Z,100.00
2022-08-27T02:14:36.593Z,100.00
2022-08-27T02:17:03.038Z,100.00
2022-08-27T02:19:29.401Z,100.00
2022-08-27T02:22:00.079Z,100.00
2022-08-27T02:24:27.920Z,100.00
2022-08-27T02:26:55.215Z,100.00
2022-08-27T02:29:21.721Z,100.00
2022-08-27T02:31:48.139Z,100.00
2022-08-27T02:34:14.801Z,100.00
2022-08-27T02:36:41.219Z,100.00
2022-08-27T02:39:07.577Z,100.00
2022-08-27T02:41:33.976Z,100.00
2022-08-27T02:44:01.402Z,100.00
2022-08-27T02:46:28.942Z,100.00
2022-08-27T02:48:55.350Z,100.00
2022-08-27T02:51:21.742Z,100.00
2022-08-27T02:53:48.416Z,100.00
2022-08-27T02:56:14.950Z,100.00
2022-08-27T02:58:48.026Z,100.00
2022-08-27T03:01:15.454Z,100.00
2022-08-27T03:03:42.010Z,100.00
2022-08-27T03:06:08.432Z,100.00
2022-08-27T03:08:52.047Z,100.00
2022-08-27T03:11:19.555Z,100.00
2022-08-27T03:13:45.960Z,100.00
2022-08-27T03:16:12.353Z,100.00
2022-08-27T03:18:38.750Z,100.00
2022-08-27T03:21:05.236Z,100.00
2022-08-27T03:23:34.608Z,100.00
2022-08-27T03:26:01.818Z,100.00
2022-08-27T03:28:29.129Z,100.00
2022-08-27T03:30:58.463Z,100.00
2022-08-27T03:33:24.902Z,100.00
2022-08-27T03:35:52.157Z,100.00
2022-08-27T03:38:18.629Z,100.00
2022-08-27T03:40:45.000Z,100.00
2022-08-27T03:43:15.344Z,100.00
2022-08-27T03:46:00.694Z,100.00
2022-08-27T03:48:28.197Z,100.00
2022-08-27T03:50:54.562Z,100.00
2022-08-27T03:53:20.942Z,100.00
2022-08-27T03:55:47.588Z,100.00
2022-08-27T03:58:13.984Z,100.00
2022-08-27T04:00:40.395Z,100.00
2022-08-27T04:03:06.922Z,100.00
2022-08-27T04:05:33.660Z,100.00
2022-08-27T04:08:00.549Z,100.00
2022-08-27T04:10:27.390Z,100.00
2022-08-27T04:12:59.314Z,100.00
2022-08-27T04:15:25.674Z,100.00
2022-08-27T04:17:52.057Z,100.00
2022-08-27T04:20:34.467Z,100.00
2022-08-27T04:23:01.669Z,100.00
2022-08-27T04:25:28.371Z,100.00
2022-08-27T04:27:54.751Z,100.00
2022-08-27T04:30:21.331Z,100.00
2022-08-27T04:32:47.805Z,100.00
2022-08-27T04:35:14.171Z,100.00
2022-08-27T04:37:40.537Z,100.00
2022-08-27T04:40:07.151Z,100.00
2022-08-27T04:42:33.614Z,100.00
2022-08-27T04:44:59.961Z,100.00
2022-08-27T04:47:26.337Z,100.00
2022-08-27T04:49:52.691Z,100.00
2022-08-27T04:52:19.758Z,100.00
2022-08-27T04:54:46.125Z,100.00
2022-08-27T04:57:12.497Z,100.00
2022-08-27T04:59:38.986Z,100.00
2022-08-27T05:02:06.366Z,100.00
2022-08-27T05:04:34.166Z,100.00
2022-08-27T05:07:02.128Z,100.00
2022-08-27T05:09:28.503Z,100.00
2022-08-27T05:11:56.240Z,100.00
2022-08-27T05:14:24.028Z,100.00
2022-08-27T05:16:50.401Z,100.00
2022-08-27T05:19:16.795Z,100.00
2022-08-27T05:21:45.374Z,100.00
2022-08-27T05:24:11.768Z,100.00
2022-08-27T05:26:38.122Z,100.00
2022-08-27T05:29:05.187Z,100.00
2022-08-27T05:31:31.592Z,100.00
2022-08-27T05:33:58.069Z,100.00
2022-08-27T05:36:28.504Z,100.00
2022-08-27T05:38:55.049Z,100.00
2022-08-27T05:41:25.469Z,100.00
2022-08-27T05:43:59.053Z,100.00
2022-08-27T05:46:25.732Z,100.00
2022-08-27T05:48:52.864Z,100.00
2022-08-27T05:51:25.849Z,100.00
2022-08-27T05:53:55.216Z,100.00
2022-08-27T05:56:22.095Z,100.00
2022-08-27T05:59:07.142Z,100.00
2022-08-27T06:01:36.203Z,100.00
2022-08-27T06:04:03.152Z,100.00
2022-08-27T06:06:29.558Z,100.00
2022-08-27T06:08:55.978Z,100.00
2022-08-27T06:11:22.992Z,100.00
2022-08-27T06:13:49.366Z,100.00
2022-08-27T06:16:16.552Z,100.00
2022-08-27T06:18:44.324Z,100.00
2022-08-27T06:21:10.841Z,100.00
2022-08-27T06:23:37.350Z,100.00
2022-08-27T06:26:07.461Z,100.00
2022-08-27T06:28:34.324Z,100.00
2022-08-27T06:31:03.911Z,100.00
2022-08-27T06:33:30.983Z,100.00
2022-08-27T06:36:00.603Z,100.00
2022-08-27T06:38:27.336Z,100.00
2022-08-27T06:40:53.946Z,100.00
2022-08-27T06:43:24.964Z,100.00
2022-08-27T06:45:51.622Z,100.00
2022-08-27T06:48:18.287Z,100.00
2022-08-27T06:50:44.686Z,100.00
2022-08-27T06:53:11.220Z,100.00
2022-08-27T06:55:41.597Z,100.00
2022-08-27T06:58:08.005Z,100.00
2022-08-27T07:00:34.436Z,100.00
2022-08-27T07:03:01.623Z,100.00
2022-08-27T07:05:27.990Z,100.00
2022-08-27T07:07:54.433Z,100.00
2022-08-27T07:10:20.813Z,100.00
2022-08-27T07:12:47.190Z,100.00
2022-08-27T07:15:13.577Z,100.00
2022-08-27T07:17:41.103Z,100.00
2022-08-27T07:20:08.422Z,100.00
2022-08-27T07:22:34.872Z,100.00
2022-08-27T07:25:01.268Z,100.00
2022-08-27T07:27:27.637Z,100.00
2022-08-27T07:29:54.104Z,100.00
2022-08-27T07:32:20.465Z,100.00
2022-08-27T07:34:46.826Z,100.00
2022-08-27T07:37:13.761Z,100.00
2022-08-27T07:39:40.160Z,100.00
2022-08-27T07:42:25.391Z,100.00
2022-08-27T07:44:51.797Z,100.00
2022-08-27T07:47:18.522Z,100.00
2022-08-27T07:49:44.906Z,100.00
2022-08-27T07:52:11.705Z,100.00
2022-08-27T07:54:38.105Z,100.00
2022-08-27T07:57:04.860Z,100.00
2022-08-27T07:59:31.247Z,100.00
2022-08-27T08:01:57.697Z,100.00
2022-08-27T08:04:24.234Z,100.00
2022-08-27T08:06:50.957Z,100.00
2022-08-27T08:09:17.348Z,100.00
2022-08-27T08:11:43.708Z,100.00
2022-08-27T08:14:10.103Z,100.00
2022-08-27T08:16:36.514Z,100.00
2022-08-27T08:19:02.979Z,100.00
2022-08-27T08:21:29.373Z,100.00
2022-08-27T08:23:55.758Z,100.00
2022-08-27T08:26:23.012Z,100.00
2022-08-27T08:28:49.375Z,100.00
2022-08-27T08:31:15.843Z,100.00
2022-08-27T08:33:42.281Z,100.00
2022-08-27T08:36:10.747Z,100.00
2022-08-27T08:38:37.514Z,100.00
2022-08-27T08:41:04.074Z,100.00
2022-08-27T08:43:33.534Z,100.00
2022-08-27T08:46:03.111Z,100.00
2022-08-27T08:48:29.673Z,100.00
2022-08-27T08:51:03.394Z,100.00
2022-08-27T08:53:33.231Z,100.00
2022-08-27T08:56:01.538Z,100.00
2022-08-27T08:58:27.907Z,100.00
2022-08-27T09:00:57.850Z,100.00
2022-08-27T09:03:24.328Z,100.00
2022-08-27T09:05:54.758Z,100.00
2022-08-27T09:08:34.073Z,100.00
2022-08-27T09:11:07.607Z,100.00
2022-08-27T09:13:38.953Z,100.00
2022-08-27T09:16:05.571Z,100.00
2022-08-27T09:18:35.047Z,100.00
2022-08-27T09:21:09.019Z,100.00
2022-08-27T09:23:57.278Z,100.00
2022-08-27T09:26:24.633Z,100.00
2022-08-27T09:29:14.747Z,100.00
2022-08-27T09:31:41.155Z,100.00
2022-08-27T09:34:07.512Z,100.00
2022-08-27T09:36:33.893Z,100.00
2022-08-27T09:39:05.403Z,100.00
2022-08-27T09:41:41.771Z,100.00
2022-08-27T09:44:11.719Z,100.00
2022-08-27T09:46:38.082Z,100.00
2022-08-27T09:49:11.152Z,100.00
2022-08-27T09:51:38.902Z,100.00
2022-08-27T09:54:06.403Z,100.00
2022-08-27T09:56:47.252Z,100.00
2022-08-27T09:59:22.650Z,100.00
2022-08-27T10:01:51.984Z,100.00
2022-08-27T10:04:23.986Z,100.00
2022-08-27T10:06:50.642Z,100.00
2022-08-27T10:09:17.239Z,100.00
2022-08-27T10:12:10.054Z,100.00
2022-08-27T10:14:43.749Z,100.00
2022-08-27T10:17:28.731Z,100.00
2022-08-27T10:20:05.700Z,100.00
2022-08-27T10:22:41.325Z,100.00
2022-08-27T10:25:26.029Z,100.00
2022-08-27T10:27:55.432Z,100.00
2022-08-27T10:30:25.875Z,100.00
2022-08-27T10:33:02.924Z,100.00
2022-08-27T10:35:40.640Z,100.00
2022-08-27T10:38:22.758Z,100.00
2022-08-27T10:40:51.752Z,100.00
2022-08-27T10:43:24.374Z,100.00
2022-08-27T10:45:53.355Z,100.00
2022-08-27T10:48:24.439Z,100.00
2022-08-27T10:50:59.661Z,100.00
2022-08-27T10:53:29.093Z,100.00
2022-08-27T10:55:59.460Z,100.00
2022-08-27T10:58:32.732Z,100.00
2022-08-27T11:00:59.409Z,100.00
2022-08-27T11:03:33.391Z,100.00
2022-08-27T11:06:00.696Z,100.00
2022-08-27T11:08:49.806Z,100.00
2022-08-27T11:12:03.267Z,100.00
2022-08-27T11:14:09.525Z,100.00
2022-08-27T11:16:42.227Z,100.00
2022-08-27T11:19:46.827Z,100.00
2022-08-27T11:22:17.983Z,100.00
2022-08-27T11:24:55.430Z,100.00
2022-08-27T11:27:23.276Z,100.00
2022-08-27T11:30:00.273Z,100.00
2022-08-27T11:32:45.756Z,100.00
2022-08-27T11:35:16.382Z,100.00
2022-08-27T11:37:46.649Z,100.00
2022-08-27T11:40:23.515Z,100.00
2022-08-27T11:42:51.675Z,100.00
2022-08-27T11:45:24.652Z,100.00
2022-08-27T11:47:51.960Z,100.00
2022-08-27T11:50:19.341Z,100.00
2022-08-27T11:52:56.906Z,100.00
2022-08-27T11:55:25.007Z,100.00
2022-08-27T11:58:02.371Z,100.00
2022-08-27T12:00:30.331Z,100.00
2022-08-27T12:03:16.933Z,100.00
2022-08-27T12:05:47.504Z,100.00
2022-08-27T12:08:16.603Z,100.00
2022-08-27T12:11:03.608Z,100.00
2022-08-27T12:13:42.629Z,100.00
2022-08-27T12:16:18.219Z,100.00
2022-08-27T12:19:04.278Z,100.00
2022-08-27T12:21:39.940Z,100.00
2022-08-27T12:24:12.425Z,100.00
2022-08-27T12:26:40.055Z,100.00
2022-08-27T12:29:18.567Z,100.00
2022-08-27T12:31:45.893Z,100.00
2022-08-27T12:34:16.030Z,100.00
2022-08-27T12:36:47.042Z,100.00
2022-08-27T12:39:14.464Z,100.00
2022-08-27T12:41:45.057Z,100.00
2022-08-27T12:44:12.716Z,100.00
2022-08-27T12:46:46.178Z,100.00
2022-08-27T12:49:37.046Z,100.00
2022-08-27T12:51:59.163Z,100.00
2022-08-27T12:54:38.642Z,100.00
2022-08-27T12:57:11.792Z,100.00
2022-08-27T12:59:44.099Z,100.00
2022-08-27T13:02:13.517Z,100.00
2022-08-27T13:04:40.121Z,100.00
2022-08-27T13:07:06.577Z,100.00
2022-08-27T13:09:33.822Z,100.00
2022-08-27T13:12:00.447Z,99.28
2022-08-27T13:14:27.783Z,98.48
2022-08-27T13:17:05.690Z,100.00
2022-08-27T13:19:35.947Z,100.00
2022-08-27T13:22:05.047Z,100.00
2022-08-27T13:24:32.685Z,99.25
2022-08-27T13:26:59.163Z,98.12
2022-08-27T13:29:25.625Z,98.24
2022-08-27T13:31:52.058Z,98.43
2022-08-27T13:34:19.627Z,98.02
2022-08-27T13:36:54.617Z,99.92
2022-08-27T13:39:20.982Z,97.60
2022-08-27T13:41:47.353Z,98.11
2022-08-27T13:44:14.486Z,95.36
2022-08-27T13:46:46.500Z,96.41
2022-08-27T13:49:14.297Z,97.74
2022-08-27T13:51:40.724Z,97.09
2022-08-27T13:54:17.628Z,96.26
2022-08-27T13:56:47.029Z,96.26
2022-08-27T13:59:19.386Z,96.57
2022-08-27T14:02:04.566Z,96.62
2022-08-27T14:04:35.671Z,96.83
2022-08-27T14:07:06.855Z,97.98
2022-08-27T14:09:34.360Z,92.50
2022-08-27T14:12:04.982Z,92.86
2022-08-27T14:14:35.923Z,93.88
2022-08-27T14:17:02.696Z,94.16
2022-08-27T14:19:33.164Z,92.38
2022-08-27T14:21:59.902Z,93.48
2022-08-27T14:24:28.957Z,89.88
2022-08-27T14:26:56.207Z,93.09
2022-08-27T14:29:22.956Z,92.20
2022-08-27T14:31:49.555Z,90.42
2022-08-27T14:34:16.704Z,89.03
2022-08-27T14:36:44.370Z,89.05
2022-08-27T14:39:11.665Z,91.81
2022-08-27T14:41:38.446Z,89.76
2022-08-27T14:44:07.100Z,89.56
2022-08-27T14:46:41.433Z,88.55
2022-08-27T14:49:14.144Z,89.53
2022-08-27T14:51:41.205Z,87.43
2022-08-27T14:54:07.597Z,88.25
2022-08-27T14:56:33.970Z,91.34
2022-08-27T14:59:00.417Z,89.53
2022-08-27T15:01:27.131Z,88.50
2022-08-27T15:03:54.381Z,87.66
2022-08-27T15:06:22.384Z,89.06
2022-08-27T15:08:50.567Z,87.63
2022-08-27T15:11:43.443Z,87.32
2022-08-27T15:14:11.512Z,85.86
2022-08-27T15:16:39.277Z,87.11
2022-08-27T15:19:07.096Z,86.80
2022-08-27T15:21:33.790Z,84.60
2022-08-27T15:24:01.193Z,84.58
2022-08-27T15:26:28.131Z,86.17
2022-08-27T15:28:54.501Z,84.40
2022-08-27T15:31:20.942Z,85.69
2022-08-27T15:33:47.361Z,85.54
2022-08-27T15:36:13.834Z,85.45
2022-08-27T15:38:40.194Z,86.09
2022-08-27T15:41:06.593Z,85.49
2022-08-27T15:43:33.085Z,87.87
2022-08-27T15:45:59.498Z,86.68
2022-08-27T15:48:25.890Z,86.23
2022-08-27T15:50:52.774Z,86.38
2022-08-27T15:53:19.522Z,86.32
2022-08-27T15:55:45.902Z,86.95
2022-08-27T15:58:12.973Z,86.02
2022-08-27T16:00:39.864Z,87.37
2022-08-27T16:03:07.323Z,88.03
2022-08-27T16:05:36.200Z,88.16
2022-08-27T16:08:02.696Z,88.54
2022-08-27T16:10:29.070Z,87.87
2022-08-27T16:12:55.544Z,86.53
2022-08-27T16:15:22.020Z,86.02
2022-08-27T16:17:49.297Z,87.13
2022-08-27T16:20:15.705Z,86.96
2022-08-27T16:22:42.183Z,86.73
2022-08-27T16:25:09.125Z,87.40
2022-08-27T16:27:37.426Z,86.39
2022-08-27T16:30:05.377Z,86.46
2022-08-27T16:32:31.737Z,86.98
2022-08-27T16:34:58.125Z,85.70
2022-08-27T16:37:34.351Z,85.99
2022-08-27T16:40:08.297Z,85.61
2022-08-27T16:42:44.534Z,85.44
2022-08-27T16:45:35.790Z,87.73
2022-08-27T16:48:24.978Z,86.72
2022-08-27T16:51:17.263Z,85.19
2022-08-27T16:53:54.869Z,85.94
2022-08-27T16:59:10.089Z,85.69
2022-08-27T17:01:38.252Z,84.96
2022-08-27T17:04:31.328Z,85.24
2022-08-27T17:07:10.085Z,85.12
2022-08-27T17:09:40.373Z,84.84
2022-08-27T17:12:19.295Z,84.71
2022-08-27T17:15:09.489Z,85.20
2022-08-27T17:17:38.126Z,87.67
2022-08-27T17:20:29.970Z,85.82
2022-08-27T17:23:25.915Z,84.46
2022-08-27T17:26:03.860Z,85.62
2022-08-27T17:29:09.614Z,86.50
2022-08-27T17:31:50.416Z,85.17
2022-08-27T17:34:29.428Z,85.48
2022-08-27T17:39:42.309Z,85.08
2022-08-27T17:42:09.317Z,85.47
2022-08-27T17:44:35.919Z,87.22
2022-08-27T17:47:03.017Z,86.21
2022-08-27T17:49:31.063Z,87.05
2022-08-27T17:51:58.475Z,87.20
2022-08-27T17:54:27.258Z,84.95
2022-08-27T17:56:53.639Z,87.91
2022-08-27T17:59:20.387Z,87.81
2022-08-27T18:01:46.777Z,89.13
2022-08-27T18:04:13.235Z,90.84
2022-08-27T18:06:39.602Z,92.96
2022-08-27T18:09:05.957Z,94.84
2022-08-27T18:11:33.749Z,95.46
2022-08-27T18:14:04.189Z,94.82
2022-08-27T18:16:31.226Z,96.34
2022-08-27T18:18:57.616Z,96.61
2022-08-27T18:21:25.502Z,97.66
2022-08-27T18:23:52.609Z,97.78
2022-08-27T18:26:19.165Z,100.00
2022-08-27T18:28:48.589Z,100.00
2022-08-27T18:31:15.053Z,100.00
2022-08-27T18:33:42.196Z,100.00
2022-08-27T18:36:08.951Z,100.00
2022-08-27T18:38:35.333Z,100.00
2022-08-27T18:41:08.386Z,100.00
2022-08-27T18:43:35.326Z,100.00
2022-08-27T18:46:01.994Z,100.00
2022-08-27T18:48:28.694Z,100.00
2022-08-27T18:50:58.639Z,100.00
2022-08-27T18:53:25.721Z,100.00
2022-08-27T18:55:52.109Z,100.00
2022-08-27T18:58:18.515Z,100.00
2022-08-27T19:00:45.875Z,100.00
2022-08-27T19:03:12.425Z,100.00
2022-08-27T19:05:38.899Z,100.00
2022-08-27T19:08:08.991Z,100.00
2022-08-27T19:10:35.342Z,100.00
2022-08-27T19:13:01.702Z,100.00
2022-08-27T19:15:28.091Z,100.00
2022-08-27T19:17:55.066Z,99.32
2022-08-27T19:20:21.665Z,99.19
2022-08-27T19:22:50.771Z,100.00
2022-08-27T19:25:17.354Z,99.16
2022-08-27T19:27:44.049Z,97.74
2022-08-27T19:30:10.815Z,98.17
2022-08-27T19:32:37.351Z,97.36
2022-08-27T19:35:04.132Z,97.64
2022-08-27T19:37:30.954Z,99.03
2022-08-27T19:40:00.487Z,99.32
2022-08-27T19:42:28.839Z,98.14
2022-08-27T19:44:55.204Z,98.30
2022-08-27T19:47:25.848Z,97.11
2022-08-27T19:49:52.729Z,96.75
2022-08-27T19:52:19.105Z,95.52
2022-08-27T19:55:10.266Z,97.37
2022-08-27T19:57:31.809Z,95.06
2022-08-27T19:59:58.242Z,95.55
2022-08-27T20:02:24.701Z,94.18
2022-08-27T20:05:14.301Z,94.10
2022-08-27T20:07:37.878Z,94.10
2022-08-27T20:10:08.317Z,92.55
2022-08-27T20:12:35.240Z,91.15
2022-08-27T20:15:01.635Z,89.67
2022-08-27T20:17:28.312Z,89.21
2022-08-27T20:19:55.715Z,90.43
2022-08-27T20:22:22.106Z,90.93
2022-08-27T20:24:48.460Z,90.67
2022-08-27T20:27:14.834Z,89.97
2022-08-27T20:29:42.153Z,89.88
2022-08-27T20:32:08.612Z,88.81
2022-08-27T20:34:35.053Z,88.45
2022-08-27T20:37:02.481Z,87.10
2022-08-27T20:39:28.858Z,88.35
2022-08-27T20:41:55.213Z,88.83
2022-08-27T20:44:24.076Z,87.37
2022-08-27T20:46:51.164Z,88.08
2022-08-27T20:49:18.606Z,86.00
2022-08-27T20:52:01.831Z,85.39
2022-08-27T20:54:32.137Z,85.86
2022-08-27T20:56:58.891Z,85.70
2022-08-27T20:59:44.186Z,86.22
2022-08-27T21:02:12.740Z,87.37
2022-08-27T21:04:40.054Z,87.46
2022-08-27T21:07:06.408Z,87.39
2022-08-27T21:09:32.828Z,86.12
2022-08-27T21:11:59.393Z,85.71
2022-08-27T21:14:25.861Z,85.74
2022-08-27T21:16:54.268Z,86.36
2022-08-27T21:19:20.713Z,86.56
2022-08-27T21:21:52.724Z,86.74
2022-08-27T21:24:19.204Z,86.26
2022-08-27T21:26:45.838Z,87.30
2022-08-27T21:29:13.353Z,87.53
2022-08-27T21:31:39.757Z,88.09
2022-08-27T21:34:06.168Z,86.97
2022-08-27T21:36:35.469Z,86.49
2022-08-27T21:39:01.921Z,86.52
2022-08-27T21:41:28.319Z,87.37
2022-08-27T21:43:54.883Z,87.38
2022-08-27T21:46:21.343Z,86.68
2022-08-27T21:48:48.143Z,86.51
2022-08-27T21:51:26.833Z,85.58
2022-08-27T21:53:53.187Z,85.50
2022-08-27T21:56:19.538Z,85.45
2022-08-27T21:58:45.898Z,85.91
2022-08-27T22:01:12.532Z,85.91
2022-08-27T22:03:38.991Z,86.87
2022-08-27T22:06:07.221Z,87.11
2022-08-27T22:08:33.837Z,86.19
2022-08-27T22:11:00.510Z,86.52
2022-08-27T22:13:26.875Z,87.22
2022-08-27T22:15:53.282Z,87.58
2022-08-27T22:18:19.712Z,88.03
2022-08-27T22:20:49.614Z,88.07
2022-08-27T22:23:16.031Z,87.12
2022-08-27T22:25:42.450Z,87.58
2022-08-27T22:28:08.831Z,88.04
2022-08-27T22:30:35.225Z,87.88
2022-08-27T22:33:01.776Z,87.76
2022-08-27T22:35:28.932Z,87.68
2022-08-27T22:37:55.474Z,88.83
2022-08-27T22:40:22.430Z,88.53
2022-08-27T22:42:49.033Z,88.40
2022-08-27T22:45:15.389Z,89.35
2022-08-27T22:47:41.998Z,88.93
2022-08-27T22:50:08.742Z,88.53
2022-08-27T22:52:35.885Z,88.09
2022-08-27T22:55:02.261Z,89.17
2022-08-27T22:57:28.614Z,87.91
2022-08-27T22:59:54.981Z,88.76
2022-08-27T23:02:21.341Z,88.71
2022-08-27T23:04:55.974Z,89.18
2022-08-27T23:07:23.196Z,88.66
2022-08-27T23:09:49.608Z,88.75
2022-08-27T23:12:16.010Z,90.16
2022-08-27T23:14:42.396Z,90.75
2022-08-27T23:17:08.781Z,88.96
2022-08-27T23:19:35.164Z,89.77
2022-08-27T23:22:01.521Z,89.58
2022-08-27T23:24:32.965Z,89.36
2022-08-27T23:27:17.936Z,90.33
2022-08-27T23:29:45.601Z,91.59
2022-08-27T23:32:11.955Z,91.43
2022-08-27T23:34:38.302Z,92.41
2022-08-27T23:37:04.652Z,92.70
2022-08-27T23:39:31.011Z,92.14
2022-08-27T23:41:57.442Z,92.96
2022-08-27T23:44:28.384Z,94.55
2022-08-27T23:46:54.882Z,95.54
2022-08-27T23:49:21.312Z,95.42
2022-08-27T23:51:47.670Z,96.05
2022-08-27T23:54:14.023Z,96.83
2022-08-27T23:56:40.907Z,97.94
2022-08-27T23:59:07.263Z,98.04
